Time;durP1;ratioP1;P1;durP2;ratioP2;P2;SDS_P1;SDS_P2;PMS_P1;PMS_P2;Temp;Humidity;BMP_temperature;BMP_pressure;BME280_temperature;BME280_humidity;BME280_pressure;Samples;Min_cycle;Max_cycle;Signal;HPM_P1;HPM_P2
2022/06/20 00:02:23;;;;;;;7.78;2.00;;;14.80;99.90;;;;;;5113794;28;20035;-61
2022/06/20 00:04:51;;;;;;;6.47;2.13;;;14.70;99.90;;;;;;5101814;28;20111;-61
2022/06/20 00:07:17;;;;;;;7.72;2.10;;;14.70;99.90;;;;;;5109990;28;20028;-61
2022/06/20 00:09:43;;;;;;;8.93;2.35;;;14.60;99.90;;;;;;5112390;28;20043;-62
2022/06/20 00:12:17;;;;;;;5.50;2.17;;;14.60;99.90;;;;;;5111258;28;20035;-61
2022/06/20 00:14:42;;;;;;;;;;;14.60;99.90;;;;;;5090094;28;20047;-61
2022/06/20 00:17:13;;;;;;;7.57;2.70;;;14.60;99.90;;;;;;5111847;28;19964;-61
2022/06/20 00:19:40;;;;;;;6.40;2.00;;;14.60;99.90;;;;;;5109822;28;20085;-61
2022/06/20 00:22:05;;;;;;;8.82;2.00;;;14.60;99.90;;;;;;5111829;28;20039;-61
2022/06/20 00:24:31;;;;;;;9.25;2.20;;;14.60;99.90;;;;;;5108215;28;20401;-62
2022/06/20 00:26:57;;;;;;;8.00;2.13;;;14.60;99.90;;;;;;5113330;28;20035;-61
2022/06/20 00:29:23;;;;;;;10.50;2.20;;;14.60;99.90;;;;;;5110513;28;20055;-62
2022/06/20 00:31:49;;;;;;;10.13;2.60;;;14.50;99.90;;;;;;5110885;28;20043;-61
2022/06/20 00:34:14;;;;;;;6.90;2.08;;;14.50;99.90;;;;;;5107605;28;20027;-61
2022/06/20 00:36:41;;;;;;;6.78;2.30;;;14.50;99.90;;;;;;5110571;28;20456;-61
2022/06/20 00:39:06;;;;;;;6.70;2.20;;;14.50;99.90;;;;;;5111547;28;20498;-61
2022/06/20 00:41:34;;;;;;;8.88;2.40;;;14.50;99.90;;;;;;5111355;28;20031;-61
2022/06/20 00:44:01;;;;;;;8.23;2.40;;;14.40;99.90;;;;;;5112536;28;20035;-61
2022/06/20 00:46:37;;;;;;;7.07;2.25;;;14.40;99.90;;;;;;5107658;28;20036;-61
2022/06/20 00:49:11;;;;;;;10.25;2.95;;;14.40;99.90;;;;;;5110800;28;20783;-61
2022/06/20 00:51:40;;;;;;;;;;;14.30;99.90;;;;;;5109656;28;20035;-60
2022/06/20 00:54:42;;;;;;;7.97;2.47;;;14.30;99.90;;;;;;5091375;28;19929;-61
2022/06/20 00:57:20;;;;;;;8.55;2.55;;;14.30;99.90;;;;;;5071690;28;20071;-61
2022/06/20 01:00:16;;;;;;;9.18;2.72;;;14.30;99.90;;;;;;5088627;28;20352;-61
2022/06/20 01:02:47;;;;;;;8.13;2.40;;;14.30;99.90;;;;;;5049468;28;20055;-62
2022/06/20 01:05:30;;;;;;;8.85;2.65;;;14.30;99.90;;;;;;5081672;28;20515;-61
2022/06/20 01:07:57;;;;;;;11.27;2.50;;;14.20;99.90;;;;;;5084327;28;20051;-61
2022/06/20 01:10:25;;;;;;;12.02;2.70;;;14.20;99.90;;;;;;5085516;28;20087;-61
2022/06/20 01:13:03;;;;;;;9.27;2.88;;;14.10;99.90;;;;;;5086018;28;20086;-61
2022/06/20 01:15:39;;;;;;;12.88;2.88;;;14.10;99.90;;;;;;5079887;28;20040;-61
2022/06/20 01:18:22;;;;;;;7.32;2.97;;;14.10;99.90;;;;;;5083835;28;20460;-61
2022/06/20 01:20:48;;;;;;;9.82;2.58;;;14.10;99.90;;;;;;5081004;28;20028;-61
2022/06/20 01:23:32;;;;;;;8.10;3.10;;;14.00;99.90;;;;;;5085170;28;20107;-61
2022/06/20 01:26:35;;;;;;;8.25;2.75;;;14.10;99.90;;;;;;5082459;28;20465;-61
2022/06/20 01:29:05;;;;;;;8.15;2.85;;;14.10;99.90;;;;;;5019454;28;20077;-61
2022/06/20 01:31:41;;;;;;;8.30;2.97;;;14.00;99.90;;;;;;5012462;28;20050;-61
2022/06/20 01:34:07;;;;;;;9.65;2.72;;;14.00;99.90;;;;;;5055930;28;20097;-61
2022/06/20 01:39:23;;;;;;;11.18;2.90;;;14.00;99.90;;;;;;5084130;28;20051;-61
2022/06/20 01:44:43;;;;;;;6.55;2.30;;;14.00;99.90;;;;;;5081970;28;20107;-62
2022/06/20 01:47:10;;;;;;;7.03;2.72;;;14.00;99.90;;;;;;5078533;28;20055;-61
2022/06/20 01:49:40;;;;;;;5.65;2.45;;;14.10;99.90;;;;;;5085156;28;20038;-62
2022/06/20 01:52:28;;;;;;;8.25;2.58;;;14.00;99.90;;;;;;5084306;28;20120;-60
2022/06/20 01:55:06;;;;;;;9.30;2.70;;;14.00;99.90;;;;;;5075849;28;20040;-61
2022/06/20 01:57:33;;;;;;;8.23;2.95;;;14.00;99.90;;;;;;5081376;28;20093;-61
2022/06/20 02:00:20;;;;;;;7.25;2.63;;;14.00;99.90;;;;;;5088159;28;20053;-62
2022/06/20 02:02:51;;;;;;;8.48;2.75;;;14.00;99.90;;;;;;5085479;28;20028;-60
2022/06/20 02:05:20;;;;;;;7.90;2.88;;;13.90;99.90;;;;;;5080207;28;20082;-61
2022/06/20 02:07:46;;;;;;;9.65;2.70;;;13.70;99.90;;;;;;5089197;28;20387;-61
2022/06/20 02:10:17;;;;;;;8.98;2.65;;;13.80;99.90;;;;;;5087671;28;20024;-61
2022/06/20 02:12:44;;;;;;;7.53;2.55;;;13.80;99.90;;;;;;5088686;28;20032;-60
2022/06/20 02:15:19;;;;;;;8.88;2.58;;;13.80;99.90;;;;;;5087157;28;20043;-61
2022/06/20 02:17:47;;;;;;;5.47;2.35;;;13.70;99.90;;;;;;5090844;28;20024;-60
2022/06/20 02:20:24;;;;;;;7.43;2.42;;;13.70;99.90;;;;;;5088414;28;20040;-60
2022/06/20 02:22:53;;;;;;;6.32;2.50;;;13.70;99.90;;;;;;5086798;28;20040;-60
2022/06/20 02:25:23;;;;;;;7.75;2.50;;;13.70;99.90;;;;;;5085046;28;20036;-61
2022/06/20 02:27:53;;;;;;;7.88;2.53;;;13.60;99.90;;;;;;5086938;28;20421;-61
2022/06/20 02:30:19;;;;;;;6.47;2.53;;;13.60;99.90;;;;;;5091626;28;20056;-61
2022/06/20 02:33:05;;;;;;;9.07;2.97;;;13.50;99.90;;;;;;5084850;28;20456;-61
2022/06/20 02:35:31;;;;;;;8.23;2.45;;;13.50;99.90;;;;;;5085517;28;20040;-61
2022/06/20 02:37:57;;;;;;;9.93;2.60;;;13.40;99.90;;;;;;5087958;28;20108;-61
2022/06/20 02:40:25;;;;;;;7.35;2.30;;;13.40;99.90;;;;;;5088784;28;20543;-61
2022/06/20 02:43:10;;;;;;;10.43;2.70;;;13.40;99.90;;;;;;5088410;28;20028;-62
2022/06/20 02:45:38;;;;;;;5.50;2.40;;;13.40;99.90;;;;;;5083266;28;20112;-61
2022/06/20 02:48:08;;;;;;;9.02;2.70;;;13.40;99.90;;;;;;5071569;28;20101;-62
2022/06/20 02:50:39;;;;;;;6.50;2.35;;;13.30;99.90;;;;;;5088511;28;20040;-60
2022/06/20 02:53:12;;;;;;;6.57;2.63;;;13.40;99.90;;;;;;5087797;28;20094;-61
2022/06/20 02:55:38;;;;;;;8.38;3.17;;;13.30;99.90;;;;;;5073844;28;20083;-63
2022/06/20 02:58:17;;;;;;;8.93;2.88;;;13.20;99.90;;;;;;5087430;28;20089;-61
2022/06/20 03:00:52;;;;;;;7.55;2.33;;;13.20;99.90;;;;;;5088773;28;20449;-60
2022/06/20 03:03:30;;;;;;;9.00;2.65;;;13.10;99.90;;;;;;5084192;28;20040;-61
2022/06/20 03:05:56;;;;;;;5.07;2.40;;;13.10;99.90;;;;;;5083728;28;20097;-61
2022/06/20 03:08:22;;;;;;;5.13;2.25;;;13.10;99.90;;;;;;5087121;28;20416;-61
2022/06/20 03:10:50;;;;;;;6.07;1.92;;;13.10;99.90;;;;;;5082498;28;20449;-61
2022/06/20 03:13:18;;;;;;;6.65;2.17;;;13.10;99.90;;;;;;5087701;28;20032;-61
2022/06/20 03:15:44;;;;;;;6.10;2.35;;;13.10;99.90;;;;;;5084617;28;20055;-61
2022/06/20 03:18:18;;;;;;;10.18;2.30;;;13.10;99.90;;;;;;5073892;28;20056;-61
2022/06/20 03:20:45;;;;;;;7.35;2.30;;;13.20;99.90;;;;;;5085907;28;20089;-61
2022/06/20 03:23:14;;;;;;;5.72;2.03;;;13.10;99.90;;;;;;5087509;28;20051;-61
2022/06/20 03:25:40;;;;;;;5.50;1.95;;;13.00;99.90;;;;;;5072747;28;20119;-60
2022/06/20 03:28:19;;;;;;;4.55;1.95;;;13.10;99.90;;;;;;5088564;28;20124;-61
2022/06/20 03:30:46;;;;;;;6.70;2.10;;;13.10;99.90;;;;;;5088826;28;20368;-62
2022/06/20 03:33:14;;;;;;;6.53;2.63;;;13.00;99.90;;;;;;5083641;28;20047;-61
2022/06/20 03:36:03;;;;;;;5.28;2.20;;;13.10;99.90;;;;;;5088056;28;20476;-61
2022/06/20 03:38:29;;;;;;;9.73;2.17;;;13.20;99.90;;;;;;5075160;28;20366;-61
2022/06/20 03:40:55;;;;;;;8.65;2.53;;;13.10;99.90;;;;;;5088614;28;20115;-61
2022/06/20 03:43:23;;;;;;;4.03;1.60;;;13.10;99.90;;;;;;5087504;28;20103;-61
2022/06/20 03:45:59;;;;;;;10.40;2.80;;;13.00;99.90;;;;;;5082879;28;20036;-61
2022/06/20 03:48:36;;;;;;;5.55;1.98;;;13.10;99.90;;;;;;5085704;28;20097;-62
2022/06/20 03:51:06;;;;;;;6.18;2.10;;;13.00;99.90;;;;;;5086347;28;20047;-61
2022/06/20 03:54:10;;;;;;;5.53;1.75;;;13.10;99.90;;;;;;5085629;28;20136;-61
2022/06/20 03:56:48;;;;;;;9.18;2.72;;;13.10;99.90;;;;;;4988297;28;20439;-61
2022/06/20 03:59:34;;;;;;;4.60;1.80;;;13.10;99.90;;;;;;5073595;28;20055;-60
2022/06/20 04:02:06;;;;;;;5.13;1.65;;;13.20;99.90;;;;;;5086546;28;20059;-60
2022/06/20 04:05:13;;;;;;;4.40;1.48;;;13.20;99.90;;;;;;5079513;28;20084;-61
2022/06/20 04:07:51;;;;;;;7.72;2.08;;;13.20;99.90;;;;;;5080204;28;20040;-61
2022/06/20 04:13:28;;;;;;;8.63;2.30;;;13.20;99.90;;;;;;5088812;28;20055;-61
2022/06/20 04:16:13;;;;;;;5.85;2.03;;;13.40;99.90;;;;;;5087539;28;20111;-61
2022/06/20 04:18:38;;;;;;;;;;;13.30;99.90;;;;;;5105001;28;20107;-62
2022/06/20 04:21:13;;;;;;;8.88;2.20;;;13.30;99.90;;;;;;5091729;28;20351;-61
2022/06/20 04:23:41;;;;;;;;;;;13.40;99.90;;;;;;5087024;28;20032;-61
2022/06/20 04:26:31;;;;;;;5.40;2.00;;;13.40;99.90;;;;;;5087829;28;19972;-61
2022/06/20 04:29:19;;;;;;;7.43;2.20;;;13.50;99.90;;;;;;5091258;28;20043;-61
2022/06/20 04:32:12;;;;;;;7.13;2.08;;;13.60;99.90;;;;;;5091725;28;20055;-61
2022/06/20 04:34:58;;;;;;;6.50;2.35;;;13.60;99.90;;;;;;5090636;28;20020;-61
2022/06/20 04:37:40;;;;;;;6.60;2.28;;;13.70;99.90;;;;;;5089997;28;20115;-61
2022/06/20 04:40:26;;;;;;;5.45;2.03;;;13.70;99.90;;;;;;5087792;28;20045;-63
2022/06/20 04:43:01;;;;;;;6.65;2.25;;;13.80;99.90;;;;;;5090177;28;20072;-61
2022/06/20 04:45:35;;;;;;;7.07;2.00;;;13.90;99.90;;;;;;5088092;28;20111;-61
2022/06/20 04:48:01;;;;;;;;;;;13.80;99.90;;;;;;5089450;28;20117;-62
2022/06/20 04:50:30;;;;;;;7.20;2.20;;;13.80;99.90;;;;;;5089394;28;20053;-61
2022/06/20 04:53:00;;;;;;;5.07;2.08;;;13.80;99.90;;;;;;5085655;28;20048;-61
2022/06/20 04:55:28;;;;;;;8.60;2.63;;;13.70;99.90;;;;;;5087828;28;20031;-61
2022/06/20 04:58:01;;;;;;;9.10;2.67;;;14.10;99.90;;;;;;5088455;28;20044;-61
2022/06/20 05:00:39;;;;;;;5.82;1.90;;;14.90;99.90;;;;;;5091068;28;20046;-61
2022/06/20 05:03:07;;;;;;;5.80;2.03;;;16.20;99.90;;;;;;5090215;28;20364;-61
2022/06/20 05:05:38;;;;;;;4.90;1.73;;;17.30;99.90;;;;;;5084067;28;20036;-62
2022/06/20 05:08:06;;;;;;;8.45;2.08;;;18.40;99.90;;;;;;5090069;28;20047;-62
2022/06/20 05:10:39;;;;;;;5.28;1.95;;;18.90;99.90;;;;;;5088829;28;20400;-62
2022/06/20 05:13:33;;;;;;;5.95;1.70;;;19.70;99.90;;;;;;5089664;28;20059;-61
2022/06/20 05:15:59;;;;;;;7.65;2.10;;;19.90;99.90;;;;;;5080049;28;20392;-61
2022/06/20 05:18:35;;;;;;;5.82;2.13;;;20.80;99.90;;;;;;5086921;28;20040;-62
2022/06/20 05:21:08;;;;;;;8.05;2.40;;;21.20;99.90;;;;;;5084481;28;20055;-61
2022/06/20 05:23:38;;;;;;;7.97;2.43;;;21.50;99.90;;;;;;5083273;28;20563;-61
2022/06/20 05:26:06;;;;;;;5.72;1.98;;;22.20;99.90;;;;;;5082444;28;20039;-61
2022/06/20 05:28:33;;;;;;;9.13;2.58;;;22.50;99.80;;;;;;5085918;28;20047;-61
2022/06/20 05:31:01;;;;;;;8.73;2.53;;;22.50;99.90;;;;;;5083437;28;20032;-62
2022/06/20 05:33:59;;;;;;;9.32;2.75;;;22.70;99.90;;;;;;5085393;28;20046;-63
2022/06/20 05:36:31;;;;;;;9.75;2.35;;;22.60;99.30;;;;;;5078842;28;20437;-62
2022/06/20 05:39:11;;;;;;;8.52;2.75;;;22.20;99.30;;;;;;5086486;28;20047;-61
2022/06/20 05:41:39;;;;;;;9.43;2.95;;;22.30;99.90;;;;;;5086538;28;20028;-62
2022/06/20 05:44:08;;;;;;;7.60;2.40;;;22.20;99.30;;;;;;5084752;28;20032;-63
2022/06/20 05:46:41;;;;;;;7.60;2.30;;;22.10;99.20;;;;;;5084829;28;20106;-62
2022/06/20 05:49:12;;;;;;;7.15;2.50;;;22.20;99.30;;;;;;5070154;28;20050;-63
2022/06/20 05:51:40;;;;;;;10.32;2.45;;;21.80;99.10;;;;;;5069607;28;20119;-65
2022/06/20 05:54:17;;;;;;;12.68;3.00;;;22.00;99.40;;;;;;5083831;28;20044;-65
2022/06/20 05:56:47;;;;;;;9.32;2.80;;;22.10;99.00;;;;;;5084147;28;20047;-66
2022/06/20 05:59:36;;;;;;;7.90;3.20;;;21.90;98.80;;;;;;5084723;28;20043;-61
2022/06/20 06:02:18;;;;;;;8.10;2.50;;;21.60;98.40;;;;;;5073501;28;20469;-61
2022/06/20 06:04:59;;;;;;;7.03;2.42;;;21.90;98.60;;;;;;5078713;28;20061;-61
2022/06/20 06:07:46;;;;;;;6.53;2.45;;;21.90;98.20;;;;;;5084395;28;20043;-62
2022/06/20 06:10:40;;;;;;;6.15;2.72;;;22.20;98.40;;;;;;5086085;28;20036;-63
2022/06/20 06:13:12;;;;;;;7.53;2.78;;;22.50;98.10;;;;;;5052212;28;20102;-63
2022/06/20 06:16:46;;;;;;;7.50;2.50;;;22.60;97.70;;;;;;5083649;28;20036;-61
2022/06/20 06:18:36;;;;;;;8.15;2.95;;;22.80;98.00;;;;;;5079845;28;20746;-63
2022/06/20 06:21:02;;;;;;;6.97;2.63;;;22.70;97.50;;;;;;5069013;28;20052;-62
2022/06/20 06:23:28;;;;;;;8.70;2.65;;;22.70;97.40;;;;;;5086760;28;20520;-62
2022/06/20 06:25:54;;;;;;;8.00;2.80;;;22.80;97.50;;;;;;5085193;28;20132;-62
2022/06/20 06:28:23;;;;;;;8.02;2.92;;;23.00;97.20;;;;;;5089752;28;20127;-62
2022/06/20 06:30:55;;;;;;;7.70;2.50;;;22.80;97.20;;;;;;5089923;28;20047;-61
2022/06/20 06:33:30;;;;;;;7.40;2.65;;;22.80;97.50;;;;;;5094794;28;20040;-62
2022/06/20 06:36:11;;;;;;;10.55;3.03;;;23.30;97.20;;;;;;5078532;28;21818;-63
2022/06/20 06:38:42;;;;;;;7.82;2.90;;;23.00;97.30;;;;;;5084736;28;20350;-62
2022/06/20 06:41:17;;;;;;;9.48;3.00;;;22.70;98.00;;;;;;5079054;28;20545;-62
2022/06/20 06:43:44;;;;;;;9.65;2.90;;;22.40;97.60;;;;;;5084565;28;20097;-61
2022/06/20 06:46:15;;;;;;;7.65;3.05;;;21.60;98.50;;;;;;5068983;28;20040;-61
2022/06/20 06:48:46;;;;;;;11.52;3.58;;;20.30;99.90;;;;;;5082700;28;20031;-61
2022/06/20 06:51:18;;;;;;;7.50;2.97;;;19.60;99.90;;;;;;5064467;28;20055;-62
2022/06/20 06:54:11;;;;;;;11.85;3.05;;;18.80;99.90;;;;;;5101894;28;20036;-61
2022/06/20 06:56:42;;;;;;;9.35;2.80;;;18.60;99.90;;;;;;5081118;28;20113;-61
2022/06/20 06:59:18;;;;;;;12.63;3.38;;;18.20;99.90;;;;;;5108719;28;20048;-62
2022/06/20 07:01:47;;;;;;;9.32;2.83;;;17.90;99.90;;;;;;5114234;28;20036;-60
2022/06/20 07:04:39;;;;;;;6.97;2.70;;;18.00;99.90;;;;;;5111758;28;20038;-61
2022/06/20 07:07:17;;;;;;;9.23;2.78;;;18.10;99.90;;;;;;5096158;28;20100;-61
2022/06/20 07:09:53;;;;;;;9.10;2.80;;;18.30;99.90;;;;;;5111974;28;20353;-62
2022/06/20 07:12:30;;;;;;;6.80;2.20;;;18.60;99.90;;;;;;5110739;28;20031;-61
2022/06/20 07:15:23;;;;;;;10.35;3.38;;;18.40;99.90;;;;;;5103500;28;20036;-61
2022/06/20 07:17:53;;;;;;;9.13;3.00;;;18.50;99.90;;;;;;5103904;28;20049;-61
2022/06/20 07:20:21;;;;;;;5.70;2.35;;;19.00;99.90;;;;;;5112861;28;20403;-61
2022/06/20 07:22:48;;;;;;;9.23;2.75;;;19.60;99.90;;;;;;5112213;28;20116;-62
2022/06/20 07:25:34;;;;;;;7.63;2.67;;;19.50;99.90;;;;;;5109472;28;20035;-61
2022/06/20 07:28:09;;;;;;;6.70;2.60;;;20.10;99.90;;;;;;5111845;28;20031;-62
2022/06/20 07:30:52;;;;;;;5.80;2.38;;;20.30;99.90;;;;;;5106804;28;20070;-61
2022/06/20 07:33:42;;;;;;;13.00;3.00;;;20.00;99.90;;;;;;5113017;28;20032;-61
2022/06/20 07:36:10;;;;;;;9.85;2.65;;;20.00;99.90;;;;;;5087137;28;20093;-60
2022/06/20 07:38:43;;;;;;;8.00;2.53;;;19.60;99.90;;;;;;5095112;28;20047;-61
2022/06/20 07:41:20;;;;;;;12.13;2.75;;;19.30;99.90;;;;;;5106056;28;20036;-61
2022/06/20 07:43:58;;;;;;;8.93;2.92;;;19.00;99.90;;;;;;5113065;28;20425;-60
2022/06/20 07:46:34;;;;;;;10.68;2.90;;;18.90;99.90;;;;;;5107071;28;20032;-61
2022/06/20 07:49:05;;;;;;;9.98;3.00;;;19.10;99.90;;;;;;5111411;28;20035;-61
2022/06/20 07:51:36;;;;;;;11.82;2.78;;;19.20;99.90;;;;;;5103143;28;20059;-60
2022/06/20 07:54:20;;;;;;;8.40;2.63;;;19.50;99.90;;;;;;5111019;28;20039;-60
2022/06/20 07:56:51;;;;;;;6.97;2.47;;;19.50;99.90;;;;;;5106450;28;20039;-61
2022/06/20 07:59:27;;;;;;;10.25;2.50;;;19.10;99.90;;;;;;5108759;28;20408;-61
2022/06/20 08:02:15;;;;;;;8.82;2.60;;;18.60;99.90;;;;;;5106335;28;20118;-61
2022/06/20 08:04:41;;;;;;;7.88;2.30;;;18.40;99.90;;;;;;5104238;28;20035;-60
2022/06/20 08:07:13;;;;;;;7.40;2.40;;;18.60;99.90;;;;;;5105749;28;20027;-61
2022/06/20 08:10:00;;;;;;;11.80;2.63;;;18.90;99.90;;;;;;5093874;28;20368;-60
2022/06/20 08:12:35;;;;;;;10.48;2.47;;;19.20;99.90;;;;;;5123814;27;20043;-62
2022/06/20 08:15:04;;;;;;;11.75;3.20;;;19.50;99.90;;;;;;5087281;28;20044;-61
2022/06/20 08:17:30;;;;;;;7.95;2.80;;;19.80;99.90;;;;;;5101391;28;20069;-61
2022/06/20 08:19:57;;;;;;;8.65;2.72;;;19.70;99.90;;;;;;5106993;28;20028;-60
2022/06/20 08:22:47;;;;;;;7.22;2.55;;;19.40;99.90;;;;;;5107970;28;20080;-61
2022/06/20 08:25:21;;;;;;;11.63;4.10;;;19.00;99.90;;;;;;5101762;28;20040;-60
2022/06/20 08:27:58;;;;;;;9.18;2.88;;;19.00;99.90;;;;;;5107268;28;20076;-60
2022/06/20 08:30:24;;;;;;;11.68;3.30;;;18.90;99.90;;;;;;5109539;28;20035;-61
2022/06/20 08:33:14;;;;;;;6.03;2.53;;;19.10;99.90;;;;;;5103946;28;20042;-61
2022/06/20 08:35:46;;;;;;;7.82;2.35;;;19.20;99.30;;;;;;5103993;28;20036;-61
2022/06/20 08:38:19;;;;;;;6.35;2.03;;;19.30;98.50;;;;;;5106166;28;20061;-61
2022/06/20 08:41:03;;;;;;;8.67;2.87;;;19.50;98.30;;;;;;5105769;28;20040;-61
2022/06/20 08:43:40;;;;;;;;;;;19.80;99.10;;;;;;5105769;28;20081;-61
2022/06/20 08:46:31;;;;;;;6.93;2.58;;;19.80;99.40;;;;;;5102356;28;20010;-61
2022/06/20 08:49:36;;;;;;;6.45;2.05;;;20.00;99.50;;;;;;5106831;28;20047;-60
2022/06/20 08:52:36;;;;;;;7.70;2.28;;;20.00;98.90;;;;;;5103833;28;21526;-61
2022/06/20 08:55:10;;;;;;;9.45;3.63;;;19.70;99.90;;;;;;5102015;28;20086;-61
2022/06/20 08:58:05;;;;;;;10.30;3.40;;;19.50;99.70;;;;;;5104474;28;20372;-60
2022/06/20 09:01:03;;;;;;;9.10;2.53;;;19.20;99.90;;;;;;5106435;28;20491;-60
2022/06/20 09:03:52;;;;;;;10.63;2.53;;;18.90;99.90;;;;;;5094576;28;20067;-63
2022/06/20 09:06:27;;;;;;;8.95;2.67;;;19.30;99.90;;;;;;5088000;28;20103;-63
2022/06/20 09:09:09;;;;;;;5.75;1.95;;;19.50;99.90;;;;;;5105661;28;20102;-63
2022/06/20 09:12:02;;;;;;;6.07;1.95;;;19.40;99.90;;;;;;5104566;28;20507;-60
2022/06/20 09:14:47;;;;;;;4.40;1.80;;;19.40;98.60;;;;;;5100928;28;20064;-60
2022/06/20 09:18:04;;;;;;;4.25;1.60;;;19.30;98.40;;;;;;5105544;28;20352;-60
2022/06/20 09:20:58;;;;;;;5.10;1.52;;;19.20;98.00;;;;;;5066161;28;20047;-60
2022/06/20 09:23:56;;;;;;;3.67;1.40;;;19.40;97.60;;;;;;5089125;28;20536;-61
2022/06/20 09:27:04;;;;;;;5.60;1.70;;;19.80;97.70;;;;;;5088765;28;20090;-62
2022/06/20 09:30:06;;;;;;;4.90;1.60;;;19.90;98.20;;;;;;5090640;28;20437;-60
2022/06/20 09:33:05;;;;;;;3.65;1.55;;;19.90;98.40;;;;;;5105480;28;20032;-60
2022/06/20 09:35:46;;;;;;;7.28;2.10;;;19.80;98.20;;;;;;5097880;28;20030;-60
2022/06/20 09:38:37;;;;;;;5.18;1.67;;;19.50;98.70;;;;;;5103624;28;20379;-60
2022/06/20 09:41:06;;;;;;;5.63;1.60;;;19.40;99.10;;;;;;5096565;28;20481;-61
2022/06/20 09:43:44;;;;;;;7.38;1.83;;;19.50;98.80;;;;;;5105825;28;20072;-61
2022/06/20 09:46:46;;;;;;;5.72;1.92;;;19.40;98.90;;;;;;5100893;28;20122;-60
2022/06/20 09:49:21;;;;;;;7.55;2.08;;;19.50;99.30;;;;;;5087551;28;20092;-61
2022/06/20 09:51:56;;;;;;;6.15;1.58;;;19.70;99.00;;;;;;5104173;28;20034;-60
2022/06/20 09:54:59;;;;;;;5.50;2.05;;;19.70;97.60;;;;;;5108090;28;20244;-61
2022/06/20 09:57:47;;;;;;;7.45;1.73;;;19.80;97.80;;;;;;5110485;28;20059;-62
2022/06/20 10:00:25;;;;;;;8.48;2.20;;;20.30;97.90;;;;;;5107897;28;20027;-61
2022/06/20 10:02:51;;;;;;;9.55;2.33;;;20.50;98.10;;;;;;5087055;28;20035;-63
2022/06/20 10:05:42;;;;;;;9.35;2.40;;;20.40;98.90;;;;;;5087223;28;20119;-61
2022/06/20 10:08:31;;;;;;;10.43;2.33;;;19.90;99.60;;;;;;5110035;28;20051;-61
2022/06/20 10:11:12;;;;;;;7.00;2.13;;;19.80;99.40;;;;;;5107649;28;20031;-60
2022/06/20 10:14:07;;;;;;;4.63;1.55;;;19.50;99.10;;;;;;5107456;28;20040;-60
2022/06/20 10:16:57;;;;;;;6.75;2.08;;;19.50;98.10;;;;;;5090322;28;20043;-60
2022/06/20 10:19:39;;;;;;;4.40;1.90;;;19.80;98.30;;;;;;5065089;28;20126;-62
2022/06/20 10:22:05;;;;;;;5.78;1.90;;;20.10;98.40;;;;;;5110651;28;20046;-61
2022/06/20 10:25:04;;;;;;;6.38;1.80;;;20.20;98.60;;;;;;5110377;28;20028;-60
2022/06/20 10:27:51;;;;;;;5.15;1.75;;;20.20;98.80;;;;;;5106746;28;20316;-62
2022/06/20 10:30:46;;;;;;;6.50;1.88;;;20.00;98.50;;;;;;5108994;28;20114;-61
2022/06/20 10:33:15;;;;;;;6.68;1.90;;;19.70;98.70;;;;;;5109158;28;20685;-61
2022/06/20 10:36:13;;;;;;;7.78;2.35;;;19.70;99.60;;;;;;5109732;28;20058;-61
2022/06/20 10:38:41;;;;;;;8.98;2.08;;;19.80;99.30;;;;;;5083973;28;20040;-61
2022/06/20 10:41:16;;;;;;;6.10;1.98;;;19.60;99.20;;;;;;5111561;28;20028;-62
2022/06/20 10:43:47;;;;;;;4.82;1.50;;;19.70;97.80;;;;;;5113292;28;20104;-62
2022/06/20 10:46:24;;;;;;;6.13;1.83;;;19.80;97.60;;;;;;5092389;28;20047;-62
2022/06/20 10:49:05;;;;;;;7.90;1.42;;;20.00;97.70;;;;;;5087686;28;20138;-63
2022/06/20 10:51:44;;;;;;;5.47;1.80;;;20.00;97.90;;;;;;5110476;28;20048;-62
2022/06/20 10:54:46;;;;;;;5.93;2.00;;;20.30;98.30;;;;;;5107694;28;20051;-61
2022/06/20 10:57:17;;;;;;;5.88;1.98;;;20.50;98.20;;;;;;5109209;28;20070;-61
2022/06/20 11:00:04;;;;;;;5.03;1.88;;;20.60;97.70;;;;;;5112782;28;20143;-61
2022/06/20 11:03:00;;;;;;;8.15;2.17;;;20.70;97.30;;;;;;5113142;28;20028;-61
2022/06/20 11:05:54;;;;;;;5.90;2.00;;;20.70;97.90;;;;;;5111895;28;20032;-63
2022/06/20 11:08:26;;;;;;;11.05;2.35;;;20.60;98.60;;;;;;5108459;28;20461;-63
2022/06/20 11:11:06;;;;;;;7.10;2.10;;;20.80;98.90;;;;;;5111940;28;20035;-63
2022/06/20 11:13:44;;;;;;;7.20;2.00;;;20.70;98.20;;;;;;5111139;28;20046;-60
2022/06/20 11:16:27;;;;;;;7.72;2.30;;;20.70;98.50;;;;;;5109302;28;20023;-60
2022/06/20 11:19:09;;;;;;;8.43;2.80;;;20.80;98.20;;;;;;5110608;28;20124;-61
2022/06/20 11:22:00;;;;;;;5.68;1.90;;;20.90;99.00;;;;;;5108310;28;20051;-61
2022/06/20 11:24:33;;;;;;;8.00;2.25;;;20.50;98.70;;;;;;5109591;28;20035;-60
2022/06/20 11:27:21;;;;;;;7.90;2.20;;;20.30;97.30;;;;;;5105133;28;20052;-60
2022/06/20 11:30:04;;;;;;;8.13;2.20;;;20.20;98.40;;;;;;5106017;28;20035;-61
2022/06/20 11:32:32;;;;;;;6.90;2.13;;;20.10;98.60;;;;;;5104198;28;20050;-60
2022/06/20 11:35:20;;;;;;;9.43;2.85;;;20.10;98.80;;;;;;5104304;28;20464;-59
2022/06/20 11:37:45;;;;;;;8.95;2.53;;;20.10;99.20;;;;;;5106701;28;20031;-60
2022/06/20 11:40:43;;;;;;;6.25;2.20;;;20.20;99.20;;;;;;5109673;28;20058;-62
2022/06/20 11:43:12;;;;;;;7.05;2.10;;;20.10;99.30;;;;;;5091595;28;20043;-62
2022/06/20 11:45:45;;;;;;;7.68;2.15;;;20.20;99.20;;;;;;5105684;28;20294;-62
2022/06/20 11:48:16;;;;;;;6.55;2.50;;;20.20;99.30;;;;;;5087043;28;20122;-61
2022/06/20 11:51:07;;;;;;;8.60;2.05;;;20.30;99.40;;;;;;5106605;28;20043;-62
2022/06/20 11:53:46;;;;;;;6.72;2.40;;;20.40;99.00;;;;;;5062768;28;20058;-61
2022/06/20 11:56:20;;;;;;;8.73;2.70;;;20.40;99.10;;;;;;5101211;28;20052;-61
2022/06/20 11:59:21;;;;;;;10.50;2.90;;;20.50;99.70;;;;;;5107266;28;20048;-61
2022/06/20 12:02:17;;;;;;;6.53;2.13;;;20.30;98.20;;;;;;5104938;28;20040;-62
2022/06/20 12:05:06;;;;;;;12.43;2.85;;;20.30;97.80;;;;;;5103600;28;20448;-61
2022/06/20 12:07:40;;;;;;;11.20;2.08;;;20.50;97.70;;;;;;5105217;28;20040;-62
2022/06/20 12:10:37;;;;;;;10.85;2.10;;;20.90;97.80;;;;;;5107718;28;20051;-61
2022/06/20 12:13:33;;;;;;;11.00;2.03;;;21.20;98.10;;;;;;5108200;28;20055;-62
2022/06/20 12:16:14;;;;;;;3.90;1.83;;;21.50;96.80;;;;;;5100625;28;20449;-61
2022/06/20 12:25:04;;;;;;;15.55;2.55;;;21.30;97.70;;;;;;5104512;28;20040;-63
2022/06/20 12:27:30;;;;;;;9.33;2.47;;;21.10;96.90;;;;;;5109037;28;20416;-63
2022/06/20 12:29:56;;;;;;;7.85;2.50;;;21.10;97.20;;;;;;5111763;28;20067;-62
2022/06/20 12:32:34;;;;;;;8.05;2.63;;;21.20;98.00;;;;;;5093905;28;20120;-62
2022/06/20 12:35:11;;;;;;;7.78;2.65;;;20.90;98.00;;;;;;5108560;28;20338;-64
2022/06/20 12:37:50;;;;;;;6.57;2.30;;;21.00;97.50;;;;;;5103932;28;20044;-62
2022/06/20 12:40:31;;;;;;;5.45;2.17;;;20.90;97.90;;;;;;5104090;28;20040;-63
2022/06/20 12:43:09;;;;;;;8.38;2.38;;;20.80;98.30;;;;;;5104219;28;20036;-62
2022/06/20 12:45:47;;;;;;;5.50;2.05;;;20.90;97.60;;;;;;5099505;28;20071;-63
2022/06/20 12:48:18;;;;;;;8.32;2.78;;;20.90;97.10;;;;;;5099940;28;20527;-62
2022/06/20 12:50:52;;;;;;;4.68;2.00;;;20.90;97.30;;;;;;5103955;28;20115;-61
2022/06/20 12:53:58;;;;;;;6.85;2.10;;;20.80;97.00;;;;;;5098756;28;20377;-62
2022/06/20 12:56:32;;;;;;;9.02;2.85;;;20.90;97.60;;;;;;5069099;28;20071;-62
2022/06/20 12:59:17;;;;;;;8.80;2.50;;;20.70;98.00;;;;;;5072546;28;20461;-62
2022/06/20 13:02:01;;;;;;;7.97;2.42;;;20.90;98.20;;;;;;5082841;28;20048;-62
2022/06/20 13:04:54;;;;;;;5.28;2.17;;;21.00;98.00;;;;;;5079190;28;20043;-62
2022/06/20 13:07:53;;;;;;;7.45;2.38;;;20.80;97.90;;;;;;5085888;28;20028;-62
2022/06/20 13:10:40;;;;;;;6.47;2.20;;;21.10;97.70;;;;;;5083866;28;20617;-63
2022/06/20 13:13:31;;;;;;;7.20;2.40;;;21.40;97.80;;;;;;5072320;28;20118;-63
2022/06/20 13:16:12;;;;;;;7.45;2.15;;;21.20;97.60;;;;;;5095587;28;20449;-62
2022/06/20 13:19:02;;;;;;;7.90;2.38;;;21.30;97.80;;;;;;5068978;28;20075;-60
2022/06/20 13:21:39;;;;;;;4.93;2.17;;;21.00;97.20;;;;;;5079381;28;20070;-59
2022/06/20 13:24:41;;;;;;;6.53;2.00;;;20.90;97.50;;;;;;5084912;28;20044;-62
2022/06/20 13:27:23;;;;;;;6.10;2.17;;;20.90;98.10;;;;;;5083434;28;20492;-62
2022/06/20 13:29:55;;;;;;;4.38;2.03;;;20.80;98.00;;;;;;5081376;28;20035;-62
2022/06/20 13:32:29;;;;;;;4.95;2.00;;;20.80;97.90;;;;;;5083921;28;20437;-62
2022/06/20 13:35:27;;;;;;;7.38;2.45;;;20.70;97.70;;;;;;5081938;28;20036;-62
2022/06/20 13:38:17;;;;;;;6.60;2.10;;;20.80;98.10;;;;;;5082209;28;20028;-62
2022/06/20 13:40:52;;;;;;;7.22;2.67;;;20.70;98.00;;;;;;5099257;28;20098;-62
2022/06/20 13:43:27;;;;;;;6.05;1.85;;;20.70;97.40;;;;;;5072256;28;20119;-62
2022/06/20 13:46:01;;;;;;;4.28;2.00;;;20.90;97.00;;;;;;5076872;28;20453;-62
2022/06/20 13:48:39;;;;;;;3.78;1.75;;;20.80;97.10;;;;;;5082669;28;20388;-63
2022/06/20 13:51:15;;;;;;;7.03;1.88;;;20.80;96.60;;;;;;5099783;28;20039;-62
2022/06/20 13:53:56;;;;;;;6.15;1.83;;;20.90;97.00;;;;;;5082979;28;20059;-61
2022/06/20 13:56:24;;;;;;;7.78;2.03;;;21.00;98.10;;;;;;5081631;28;20083;-62
2022/06/20 13:59:01;;;;;;;4.70;1.90;;;20.90;97.40;;;;;;5070799;28;20045;-62